Terminal Aerodrome Forecast
Issued by NWS Quad Cities IA IL

Home | Current Version | Previous Version | Text Only | Print | Product List | Glossary On
Versions: 1 2 3 4 5 6 7 8 9 10 11 12 13 14 15 16 17 18 19 20 21 22 23 24
000
FTUS43 KDVN 191500 AAB
TAFDBQ
TAF AMD
KDBQ 191539Z 1916/2012 27007KT P6SM SCT018 SCT025
      TEMPO 1916/1918 BKN022
     FM191800 28011KT P6SM SCT020
     FM200100 30003KT P6SM SKC
     FM200800 VRB02KT 3SM BR SKC=

USA.gov is the U.S. government's official web portal to all federal, state and local government web resources and services.